Time;durP1;ratioP1;P1;durP2;ratioP2;P2;SDS_P1;SDS_P2;PMS_P1;PMS_P2;Temp;Humidity;BMP_temperature;BMP_pressure;BME280_temperature;BME280_humidity;BME280_pressure;Samples;Min_cycle;Max_cycle;Signal;HPM_P1;HPM_P2
2023/08/18 00:00:51;;;;;;;5.03;1.85;;;;;;;18.89;100.00;96619.31;5040815;28;20654;-60
2023/08/18 00:03:18;;;;;;;4.00;1.90;;;;;;;18.83;100.00;96624.63;5041043;28;20238;-60
2023/08/18 00:05:44;;;;;;;6.07;2.13;;;;;;;18.82;100.00;96629.16;5041437;28;20234;-61
2023/08/18 00:08:12;;;;;;;4.82;1.83;;;;;;;18.72;100.00;96628.66;5040410;28;20200;-60
2023/08/18 00:10:38;;;;;;;3.33;2.15;;;;;;;18.68;100.00;96622.03;5040397;28;20215;-60
2023/08/18 00:13:05;;;;;;;1.88;1.70;;;;;;;18.62;100.00;96616.63;5040688;28;20204;-60
2023/08/18 00:15:31;;;;;;;4.18;1.63;;;;;;;18.67;100.00;96616.88;5041647;28;20204;-61
2023/08/18 00:17:58;;;;;;;2.35;1.73;;;;;;;18.67;100.00;96625.72;5040855;28;20208;-61
2023/08/18 00:20:24;;;;;;;3.25;1.73;;;;;;;18.61;100.00;96621.16;5041857;28;20211;-61
2023/08/18 00:22:52;;;;;;;2.85;1.90;;;;;;;18.54;100.00;96620.28;5040501;28;20203;-60
2023/08/18 00:25:20;;;;;;;3.42;2.05;;;;;;;18.51;100.00;96623.34;5040863;28;20227;-62
2023/08/18 00:27:46;;;;;;;4.38;1.80;;;;;;;18.46;100.00;96623.03;5040124;28;20323;-60
2023/08/18 00:30:13;;;;;;;2.95;1.73;;;;;;;18.42;100.00;96621.78;5040860;28;20637;-60
2023/08/18 00:32:40;;;;;;;3.35;1.70;;;;;;;18.37;100.00;96624.22;5040412;28;20636;-61
2023/08/18 00:35:07;;;;;;;2.67;1.80;;;;;;;18.38;100.00;96620.53;5041626;28;20195;-59
2023/08/18 00:37:34;;;;;;;4.53;2.15;;;;;;;18.28;100.00;96620.81;5040810;28;20242;-61
2023/08/18 00:40:00;;;;;;;3.80;2.03;;;;;;;18.28;100.00;96625.38;5040090;28;20233;-60
2023/08/18 00:42:28;;;;;;;3.38;1.83;;;;;;;18.25;100.00;96631.06;5040179;28;20883;-61
2023/08/18 00:44:54;;;;;;;3.85;1.73;;;;;;;18.25;100.00;96629.22;5040780;28;20208;-60
2023/08/18 00:47:23;;;;;;;6.95;2.17;;;;;;;18.26;100.00;96628.22;5041217;28;20223;-60
2023/08/18 00:49:54;;;;;;;2.92;1.70;;;;;;;18.30;100.00;96624.16;5047610;28;20204;-58
2023/08/18 00:52:22;;;;;;;4.25;2.13;;;;;;;18.23;100.00;96631.28;5054307;28;20252;-60
2023/08/18 00:54:53;;;;;;;4.55;1.83;;;;;;;18.23;100.00;96628.59;5054698;28;20265;-60
2023/08/18 00:57:20;;;;;;;3.53;2.00;;;;;;;18.20;100.00;96628.16;5056403;28;20231;-59
2023/08/18 00:59:51;;;;;;;3.15;1.73;;;;;;;18.26;100.00;96625.56;5057126;28;20284;-60
2023/08/18 01:02:18;;;;;;;3.25;2.20;;;;;;;18.25;100.00;96625.72;5056049;28;20208;-60
2023/08/18 01:04:45;;;;;;;4.40;1.95;;;;;;;18.26;100.00;96630.06;5055404;28;20290;-59
2023/08/18 01:07:16;;;;;;;2.97;1.95;;;;;;;18.25;100.00;96623.06;5053869;28;20292;-59
2023/08/18 01:09:50;;;;;;;2.00;1.80;;;;;;;18.34;100.00;96620.06;5053876;28;20278;-60
2023/08/18 01:12:30;;;;;;;3.13;2.03;;;;;;;18.31;100.00;96616.94;5054516;28;20707;-60
2023/08/18 01:15:06;;;;;;;4.72;2.17;;;;;;;18.27;100.00;96611.16;5056308;28;20241;-59
2023/08/18 01:17:39;;;;;;;3.80;2.00;;;;;;;18.28;100.00;96609.31;5053663;28;20227;-60
2023/08/18 01:20:08;;;;;;;3.05;2.10;;;;;;;18.31;100.00;96608.91;5058099;28;20227;-59
2023/08/18 01:22:40;;;;;;;5.03;2.30;;;;;;;18.30;100.00;96601.91;5055972;28;20229;-62
2023/08/18 01:25:12;;;;;;;2.67;2.30;;;;;;;18.33;100.00;96610.38;5056680;28;20258;-60
2023/08/18 01:27:39;;;;;;;2.70;2.22;;;;;;;18.30;100.00;96607.25;5037356;28;20231;-60
2023/08/18 01:30:09;;;;;;;4.18;2.20;;;;;;;18.33;100.00;96614.91;5054773;28;20194;-59
2023/08/18 01:32:48;;;;;;;4.40;2.13;;;;;;;18.30;100.00;96607.25;5055705;28;20276;-58
2023/08/18 01:35:14;;;;;;;4.53;2.25;;;;;;;18.32;100.00;96610.56;5051922;28;20215;-61
2023/08/18 01:37:42;;;;;;;3.38;2.22;;;;;;;18.28;100.00;96604.75;5043440;28;20612;-61
2023/08/18 01:40:14;;;;;;;2.92;2.10;;;;;;;18.28;100.00;96606.63;5043738;28;20215;-61
2023/08/18 01:42:40;;;;;;;4.40;2.50;;;;;;;18.24;100.00;96600.84;5045057;28;20222;-61
2023/08/18 01:45:11;;;;;;;3.50;2.30;;;;;;;18.23;100.00;96601.84;5044141;28;20215;-61
2023/08/18 01:47:39;;;;;;;2.83;2.33;;;;;;;18.22;100.00;96600.19;5046421;28;20226;-62
2023/08/18 01:50:06;;;;;;;4.57;2.50;;;;;;;18.18;100.00;96598.06;5047744;28;20207;-61
2023/08/18 01:52:35;;;;;;;2.50;1.90;;;;;;;18.20;100.00;96612.09;5046656;28;20235;-61
2023/08/18 01:55:01;;;;;;;4.72;2.10;;;;;;;18.17;100.00;96607.13;5044203;28;20207;-60
2023/08/18 01:57:29;;;;;;;4.88;2.42;;;;;;;18.17;100.00;96601.78;5044957;28;20206;-61
2023/08/18 01:59:56;;;;;;;4.10;2.22;;;;;;;18.17;100.00;96591.06;5045022;28;20196;-60
2023/08/18 02:02:25;;;;;;;5.25;2.30;;;;;;;18.10;100.00;96608.91;5045005;28;20211;-61
2023/08/18 02:04:51;;;;;;;6.35;2.60;;;;;;;18.11;100.00;96602.53;5024834;28;20209;-60
2023/08/18 02:07:18;;;;;;;2.00;1.75;;;;;;;18.16;100.00;96598.28;5024653;28;20252;-60
2023/08/18 02:09:44;;;;;;;3.35;2.03;;;;;;;18.14;100.00;96594.13;5024526;28;20651;-61
2023/08/18 02:12:11;;;;;;;2.97;2.15;;;;;;;18.13;100.00;96592.47;5024024;28;20217;-60
2023/08/18 02:14:39;;;;;;;4.28;2.63;;;;;;;18.10;100.00;96595.53;5025532;28;20218;-60
2023/08/18 02:17:06;;;;;;;3.88;2.47;;;;;;;18.07;100.00;96598.56;5026402;28;20519;-61
2023/08/18 02:19:32;;;;;;;2.40;2.20;;;;;;;18.05;100.00;96597.94;5026424;28;20223;-62
2023/08/18 02:21:59;;;;;;;3.70;2.50;;;;;;;18.04;100.00;96596.28;5026488;28;20209;-60
2023/08/18 02:24:25;;;;;;;4.18;2.33;;;;;;;18.04;100.00;96589.09;5025592;28;20658;-61
2023/08/18 02:26:52;;;;;;;2.60;2.40;;;;;;;18.06;100.00;96594.25;5023789;28;20219;-60
2023/08/18 02:29:18;;;;;;;4.68;2.60;;;;;;;18.04;100.00;96598.94;5024262;28;20231;-62
2023/08/18 02:31:47;;;;;;;2.50;2.30;;;;;;;18.04;100.00;96598.94;5024256;28;20219;-61
2023/08/18 02:34:14;;;;;;;2.65;2.45;;;;;;;17.98;100.00;96602.41;5022807;28;20211;-60
2023/08/18 02:36:40;;;;;;;3.97;2.50;;;;;;;18.00;100.00;96601.19;5030117;28;20255;-61
2023/08/18 02:39:07;;;;;;;2.47;1.77;;;;;;;17.97;100.00;96606.09;5034435;28;20616;-61
2023/08/18 02:41:33;;;;;;;5.95;2.10;;;;;;;18.04;100.00;96612.34;5029225;28;20636;-61
2023/08/18 02:43:59;;;;;;;4.25;1.92;;;;;;;18.05;100.00;96603.28;5023164;28;20208;-60
2023/08/18 02:46:26;;;;;;;1.90;1.70;;;;;;;18.10;100.00;96609.75;5023572;28;20219;-61
2023/08/18 02:48:54;;;;;;;3.95;2.22;;;;;;;18.13;100.00;96606.69;5022199;28;20691;-61
2023/08/18 02:51:20;;;;;;;3.97;2.10;;;;;;;18.14;100.00;96607.53;5022990;28;20671;-61
2023/08/18 02:53:48;;;;;;;4.70;2.50;;;;;;;18.13;100.00;96605.84;5023827;28;20218;-61
2023/08/18 02:56:16;;;;;;;5.05;1.77;;;;;;;18.10;100.00;96603.56;5037332;28;20235;-61
2023/08/18 02:58:42;;;;;;;2.88;1.90;;;;;;;18.08;100.00;96602.91;5036390;28;20204;-61
2023/08/18 03:01:10;;;;;;;4.85;1.88;;;;;;;18.06;100.00;96597.78;5029189;28;20208;-61
2023/08/18 03:03:37;;;;;;;4.15;1.77;;;;;;;18.11;100.00;96597.16;5032474;28;20329;-60
2023/08/18 03:06:07;;;;;;;4.22;1.90;;;;;;;18.04;100.00;96601.63;5041784;28;20672;-61
2023/08/18 03:08:35;;;;;;;4.68;2.00;;;;;;;18.03;100.00;96589.28;5042146;28;20204;-60
2023/08/18 03:11:03;;;;;;;3.70;1.83;;;;;;;18.01;100.00;96596.66;5042597;28;20214;-61
2023/08/18 03:13:29;;;;;;;4.38;2.30;;;;;;;17.96;100.00;96593.75;5041770;28;20279;-60
2023/08/18 03:15:56;;;;;;;3.97;2.00;;;;;;;17.94;100.00;96591.25;5040640;28;21344;-60
2023/08/18 03:18:23;;;;;;;4.60;2.08;;;;;;;17.92;100.00;96593.28;5024898;28;20216;-60
2023/08/18 03:20:50;;;;;;;4.13;2.05;;;;;;;17.94;100.00;96587.75;5041590;28;20196;-60
2023/08/18 03:23:19;;;;;;;4.72;2.10;;;;;;;17.92;100.00;96602.13;5042416;28;20211;-61
2023/08/18 03:25:46;;;;;;;2.30;2.10;;;;;;;17.90;100.00;96593.47;5041900;28;20226;-61
2023/08/18 03:28:13;;;;;;;2.90;1.92;;;;;;;17.86;100.00;96592.19;5041653;28;20219;-60
2023/08/18 03:30:39;;;;;;;2.33;1.90;;;;;;;17.90;100.00;96600.66;5041972;28;20207;-61
2023/08/18 03:33:06;;;;;;;3.65;2.17;;;;;;;17.83;100.00;96597.94;5042346;28;20204;-60
2023/08/18 03:35:35;;;;;;;3.22;2.17;;;;;;;17.71;100.00;96607.44;5041038;28;20226;-61
2023/08/18 03:38:02;;;;;;;4.70;2.00;;;;;;;17.82;100.00;96601.59;5042035;28;20191;-60
2023/08/18 03:40:31;;;;;;;3.50;2.38;;;;;;;17.87;100.00;96609.06;5051981;28;20214;-61
2023/08/18 03:42:58;;;;;;;5.18;2.00;;;;;;;17.85;100.00;96611.94;5051742;28;20627;-61
2023/08/18 03:45:25;;;;;;;3.92;1.90;;;;;;;17.87;100.00;96614.44;5018677;28;20286;-62
2023/08/18 03:47:52;;;;;;;2.75;1.90;;;;;;;17.87;100.00;96612.59;5045756;28;20215;-61
2023/08/18 03:50:21;;;;;;;4.32;2.33;;;;;;;17.89;100.00;96604.34;5041219;28;20743;-60
2023/08/18 03:52:47;;;;;;;4.85;1.92;;;;;;;17.84;100.00;96599.59;5041044;28;20211;-61
2023/08/18 03:55:14;;;;;;;5.32;2.30;;;;;;;17.78;100.00;96612.91;5041392;28;20195;-60
2023/08/18 03:57:42;;;;;;;6.63;5.38;;;;;;;17.81;100.00;96613.34;5040499;28;20541;-60
2023/08/18 04:00:10;;;;;;;3.80;3.42;;;;;;;17.81;100.00;96607.16;5041177;28;20549;-61
2023/08/18 04:02:36;;;;;;;3.30;2.35;;;;;;;17.84;100.00;96612.97;5041303;28;20207;-61
2023/08/18 04:05:03;;;;;;;3.00;2.40;;;;;;;17.88;100.00;96611.56;5041875;28;20265;-61
2023/08/18 04:07:30;;;;;;;5.18;2.33;;;;;;;17.86;100.00;96610.91;5041279;28;20232;-60
2023/08/18 04:09:56;;;;;;;3.20;2.00;;;;;;;17.84;100.00;96607.63;5041690;28;20294;-60
2023/08/18 04:12:23;;;;;;;3.03;2.00;;;;;;;17.81;100.00;96608.00;5040065;28;20196;-61
2023/08/18 04:14:51;;;;;;;4.45;2.00;;;;;;;17.87;100.00;96612.59;5041210;28;20547;-61
2023/08/18 04:17:17;;;;;;;2.85;2.28;;;;;;;17.92;100.00;96609.34;5041873;28;20296;-62
2023/08/18 04:19:44;;;;;;;3.17;2.25;;;;;;;17.90;100.00;96612.19;5041048;28;20563;-60
2023/08/18 04:22:12;;;;;;;3.35;2.13;;;;;;;17.90;100.00;96608.69;5041090;28;20207;-61
2023/08/18 04:24:39;;;;;;;3.20;1.88;;;;;;;17.90;100.00;96614.03;5040432;28;20325;-61
2023/08/18 04:27:06;;;;;;;6.03;1.85;;;;;;;17.95;100.00;96622.34;5040771;28;20227;-61
2023/08/18 04:29:33;;;;;;;2.92;1.80;;;;;;;17.96;100.00;96620.50;5041049;28;20215;-60
2023/08/18 04:32:02;;;;;;;5.50;3.58;;;;;;;17.92;100.00;96620.84;5041455;28;20227;-60
2023/08/18 04:34:30;;;;;;;3.22;2.70;;;;;;;17.89;100.00;96620.41;5046452;28;20207;-59
2023/08/18 04:37:03;;;;;;;5.28;2.40;;;;;;;17.89;100.00;96621.25;5047559;28;20504;-60
2023/08/18 04:39:34;;;;;;;4.50;2.08;;;;;;;17.92;100.00;96620.06;5042301;28;20217;-60
2023/08/18 04:42:01;;;;;;;5.07;2.17;;;;;;;17.89;100.00;96625.75;5051130;28;20261;-60
2023/08/18 04:44:28;;;;;;;5.05;2.17;;;;;;;17.88;100.00;96624.94;5044852;28;20211;-61
2023/08/18 04:46:56;;;;;;;3.97;2.53;;;;;;;17.85;100.00;96621.81;5043447;28;20202;-59
2023/08/18 04:49:27;;;;;;;4.95;2.08;;;;;;;17.88;100.00;96622.28;5043033;28;20287;-61
2023/08/18 04:51:54;;;;;;;4.03;2.33;;;;;;;17.86;100.00;96623.47;5043521;28;20245;-60
2023/08/18 04:54:20;;;;;;;2.58;2.17;;;;;;;17.87;100.00;96628.63;5044446;28;20548;-60
2023/08/18 04:56:48;;;;;;;8.18;2.50;;;;;;;17.92;100.00;96620.84;5041679;28;20206;-61
2023/08/18 04:59:16;;;;;;;5.72;2.38;;;;;;;18.00;100.00;96627.09;5046515;28;20522;-60
2023/08/18 05:01:46;;;;;;;4.97;2.63;;;;;;;18.06;100.00;96621.84;5045406;28;20208;-62
2023/08/18 05:04:12;;;;;;;4.97;2.10;;;;;;;18.14;100.00;96623.59;5042470;28;20330;-62
2023/08/18 05:06:41;;;;;;;5.80;2.53;;;;;;;18.27;100.00;96627.22;5042973;28;20218;-61
2023/08/18 05:09:08;;;;;;;3.75;2.08;;;;;;;18.33;100.00;96622.94;5043966;28;20242;-61
2023/08/18 05:11:34;;;;;;;4.45;2.30;;;;;;;18.36;100.00;96625.22;5039650;28;20213;-60
2023/08/18 05:14:01;;;;;;;3.53;2.42;;;;;;;18.42;100.00;96635.19;5039194;28;20226;-61
2023/08/18 05:16:27;;;;;;;2.83;2.20;;;;;;;18.46;100.00;96636.44;5039521;28;20580;-61
2023/08/18 05:18:54;;;;;;;4.80;2.30;;;;;;;18.54;100.00;96652.41;5040777;28;20203;-61
2023/08/18 05:21:20;;;;;;;3.25;2.42;;;;;;;18.56;100.00;96645.03;5039992;28;20208;-60
2023/08/18 05:23:50;;;;;;;6.68;2.53;;;;;;;18.64;100.00;96652.06;5041493;28;20212;-60
2023/08/18 05:26:16;;;;;;;4.47;2.70;;;;;;;18.76;100.00;96646.00;5040550;28;20200;-61
2023/08/18 05:28:44;;;;;;;6.72;2.88;;;;;;;18.93;100.00;96651.06;5040616;28;20250;-61
2023/08/18 05:31:13;;;;;;;3.15;2.60;;;;;;;19.01;100.00;96643.72;5040991;28;20204;-60
2023/08/18 05:33:39;;;;;;;5.88;3.53;;;;;;;19.18;100.00;96633.53;5040583;28;20219;-61
2023/08/18 05:36:07;;;;;;;10.57;3.80;;;;;;;19.33;100.00;96640.44;5040202;28;20208;-60
2023/08/18 05:38:34;;;;;;;5.03;3.40;;;;;;;19.43;100.00;96641.97;5041179;28;20232;-61
2023/08/18 05:41:07;;;;;;;5.10;2.95;;;;;;;19.56;100.00;96647.38;5045055;28;20204;-61
2023/08/18 05:43:37;;;;;;;6.57;3.63;;;;;;;19.76;100.00;96645.63;5043179;28;20638;-61
2023/08/18 05:46:03;;;;;;;6.93;3.30;;;;;;;19.98;100.00;96652.50;5044312;28;20237;-60
2023/08/18 05:48:32;;;;;;;5.53;3.25;;;;;;;20.20;100.00;96656.72;5044589;28;20228;-61
2023/08/18 05:50:59;;;;;;;3.80;2.90;;;;;;;20.43;100.00;96648.34;5027405;28;20199;-62
2023/08/18 05:53:25;;;;;;;6.70;3.10;;;;;;;20.65;100.00;96643.63;5057083;28;20582;-60
2023/08/18 05:55:53;;;;;;;7.07;3.15;;;;;;;20.79;100.00;96640.75;5063969;28;20200;-61
2023/08/18 05:58:21;;;;;;;4.80;3.17;;;;;;;21.02;100.00;96639.47;5070094;28;20207;-62
2023/08/18 06:00:49;;;;;;;4.70;3.20;;;;;;;21.17;100.00;96646.31;5060103;28;20210;-60
2023/08/18 06:03:16;;;;;;;5.68;3.38;;;;;;;21.37;100.00;96643.59;5043559;28;20660;-60
2023/08/18 06:05:43;;;;;;;6.05;2.85;;;;;;;21.60;100.00;96643.13;5043581;28;20535;-61
2023/08/18 06:08:12;;;;;;;2.97;2.78;;;;;;;21.82;100.00;96639.91;5042738;28;20228;-60
2023/08/18 06:10:38;;;;;;;3.10;2.70;;;;;;;22.03;98.75;96643.41;5042729;28;20211;-60
2023/08/18 06:13:05;;;;;;;5.18;3.05;;;;;;;22.07;97.66;96644.63;5042254;28;20200;-61
2023/08/18 06:15:33;;;;;;;3.80;3.03;;;;;;;22.38;96.82;96641.97;5042992;28;20639;-61
2023/08/18 06:17:59;;;;;;;3.00;2.80;;;;;;;22.59;94.06;96638.91;5045541;28;20212;-62
2023/08/18 06:20:26;;;;;;;7.18;3.42;;;;;;;22.75;94.28;96638.41;5044839;28;20533;-61
2023/08/18 06:22:52;;;;;;;8.63;3.28;;;;;;;22.92;94.81;96646.75;5043912;28;20214;-61
2023/08/18 06:25:18;;;;;;;8.27;3.60;;;;;;;23.17;92.32;96641.34;5043498;28;20202;-60
2023/08/18 06:27:46;;;;;;;4.63;2.90;;;;;;;23.40;91.02;96641.56;5042827;28;20254;-60
2023/08/18 06:30:12;;;;;;;13.50;3.33;;;;;;;23.66;89.59;96644.03;5043238;28;20201;-61
2023/08/18 06:32:40;;;;;;;5.55;3.15;;;;;;;23.77;87.64;96642.44;5048856;28;20204;-61
2023/08/18 06:35:07;;;;;;;12.65;3.95;;;;;;;23.99;88.16;96640.06;5055788;28;20207;-62
2023/08/18 06:37:33;;;;;;;6.78;2.97;;;;;;;23.94;85.44;96648.88;5048718;28;20203;-60
2023/08/18 06:39:59;;;;;;;3.03;2.55;;;;;;;24.08;83.71;96644.97;5042923;28;20199;-60
2023/08/18 06:42:26;;;;;;;4.60;2.75;;;;;;;24.27;83.94;96643.88;5042320;28;20204;-61
2023/08/18 06:44:52;;;;;;;6.05;2.85;;;;;;;24.50;83.73;96648.56;5043449;28;20543;-60
2023/08/18 06:47:19;;;;;;;5.95;2.47;;;;;;;24.66;82.58;96653.31;5043273;28;20219;-59
2023/08/18 06:49:47;;;;;;;4.53;2.83;;;;;;;24.94;83.63;96649.19;5050900;28;20225;-62
2023/08/18 06:52:14;;;;;;;5.15;2.70;;;;;;;24.76;82.47;96655.47;5056363;28;20227;-62
2023/08/18 06:54:40;;;;;;;6.15;2.88;;;;;;;25.22;82.13;96652.84;5051322;28;20204;-59
2023/08/18 06:57:07;;;;;;;2.13;1.95;;;;;;;25.45;79.97;96646.63;5042887;28;20211;-61
2023/08/18 06:59:34;;;;;;;5.03;2.55;;;;;;;25.47;78.87;96639.06;5042560;28;20210;-62
2023/08/18 07:02:00;;;;;;;4.07;2.40;;;;;;;25.67;77.61;96650.41;5042193;28;20747;-61
2023/08/18 07:04:28;;;;;;;6.68;2.35;;;;;;;25.63;74.20;96643.81;5041908;28;20242;-61
2023/08/18 07:06:56;;;;;;;2.70;2.20;;;;;;;25.96;75.34;96653.19;5042213;28;20514;-62
2023/08/18 07:09:23;;;;;;;4.57;1.90;;;;;;;25.82;73.85;96646.38;5042707;28;20224;-61
2023/08/18 07:11:50;;;;;;;2.30;1.83;;;;;;;25.82;74.92;96646.38;5042259;28;20206;-62
2023/08/18 07:14:16;;;;;;;3.45;1.90;;;;;;;25.89;72.30;96653.31;5043035;28;21233;-61
2023/08/18 07:16:44;;;;;;;3.92;1.95;;;;;;;25.81;69.73;96650.13;5043122;28;20207;-61
2023/08/18 07:19:11;;;;;;;3.88;2.13;;;;;;;26.28;71.02;96651.69;5024766;28;20225;-61
2023/08/18 07:21:39;;;;;;;3.17;2.35;;;;;;;26.24;70.04;96653.25;5042413;28;20230;-62
2023/08/18 07:24:11;;;;;;;4.25;2.40;;;;;;;26.51;70.77;96651.59;5042838;28;20222;-65
2023/08/18 07:26:40;;;;;;;2.70;1.80;;;;;;;26.51;72.93;96648.03;5042670;28;20222;-61
2023/08/18 07:29:08;;;;;;;2.63;2.20;;;;;;;26.51;73.22;96661.59;5024697;28;20219;-62
2023/08/18 07:31:35;;;;;;;5.15;2.35;;;;;;;26.43;69.82;96664.72;5042633;28;20207;-61
2023/08/18 07:34:03;;;;;;;4.82;2.40;;;;;;;26.59;72.28;96658.50;5042080;28;20214;-61
2023/08/18 07:36:30;;;;;;;4.43;2.33;;;;;;;26.67;72.34;96667.09;5042020;28;20231;-61
2023/08/18 07:38:56;;;;;;;4.53;2.33;;;;;;;26.77;72.00;96665.63;5042233;28;20203;-64
2023/08/18 07:41:24;;;;;;;2.58;2.00;;;;;;;26.89;69.96;96664.50;5041887;28;20211;-60
2023/08/18 07:43:50;;;;;;;3.75;2.30;;;;;;;26.77;67.30;96662.91;5042880;28;20219;-63
2023/08/18 07:46:17;;;;;;;4.97;2.13;;;;;;;27.06;70.54;96667.25;5041403;28;20204;-62
2023/08/18 07:48:44;;;;;;;2.97;2.05;;;;;;;26.99;70.63;96667.41;5041223;28;21511;-61
2023/08/18 07:51:11;;;;;;;3.25;2.50;;;;;;;27.12;71.37;96666.25;5041045;28;20207;-61
2023/08/18 07:53:37;;;;;;;4.10;2.28;;;;;;;27.23;73.94;96665.34;5042550;28;20208;-62
2023/08/18 07:56:04;;;;;;;3.78;1.80;;;;;;;27.01;69.48;96678.00;5041023;28;20203;-61
2023/08/18 07:58:36;;;;;;;5.43;2.35;;;;;;;27.09;69.11;96669.47;5041737;28;20330;-62
2023/08/18 08:01:02;;;;;;;3.22;2.25;;;;;;;27.31;71.68;96662.22;5041186;28;20211;-60
2023/08/18 08:03:29;;;;;;;5.85;2.60;;;;;;;27.48;68.72;96662.25;5041390;28;20235;-61
2023/08/18 08:05:55;;;;;;;2.50;2.05;;;;;;;27.73;67.39;96659.06;5039751;28;20549;-62
2023/08/18 08:08:22;;;;;;;7.28;2.85;;;;;;;27.57;66.43;96668.88;5040544;28;20231;-61
2023/08/18 08:10:49;;;;;;;5.13;2.30;;;;;;;27.59;65.69;96669.47;5040776;28;20206;-63
2023/08/18 08:13:16;;;;;;;3.75;2.25;;;;;;;27.32;66.76;96677.44;5040468;28;20639;-61
2023/08/18 08:15:45;;;;;;;5.57;2.85;;;;;;;27.46;69.45;96673.34;5040687;28;20711;-61
2023/08/18 08:18:15;;;;;;;5.57;2.60;;;;;;;27.64;62.79;96674.97;5040761;28;20208;-61
2023/08/18 08:20:42;;;;;;;3.53;1.90;;;;;;;27.64;63.34;96673.06;5041802;28;20261;-61
2023/08/18 08:23:08;;;;;;;4.88;2.55;;;;;;;27.86;66.93;96675.00;5041462;28;20218;-61
2023/08/18 08:25:35;;;;;;;4.38;2.33;;;;;;;27.85;64.48;96667.91;5041443;28;20211;-61
2023/08/18 08:28:02;;;;;;;5.10;2.15;;;;;;;28.12;62.40;96666.16;5040904;28;20207;-59
2023/08/18 08:30:29;;;;;;;2.90;2.03;;;;;;;28.19;66.57;96664.06;5040717;28;20238;-64
2023/08/18 08:32:57;;;;;;;5.32;2.33;;;;;;;28.00;63.52;96666.22;5041998;28;20211;-62
2023/08/18 08:35:24;;;;;;;3.35;2.25;;;;;;;28.18;63.45;96667.84;5042145;28;20203;-63
2023/08/18 08:37:52;;;;;;;4.38;2.20;;;;;;;28.27;60.54;96666.31;5040540;28;20214;-63
2023/08/18 08:40:20;;;;;;;4.20;2.35;;;;;;;28.58;61.40;96673.75;5041658;28;20216;-62
2023/08/18 08:42:48;;;;;;;3.92;2.30;;;;;;;27.59;60.99;96670.31;5041051;28;20632;-62
2023/08/18 08:45:21;;;;;;;5.18;2.65;;;;;;;27.36;60.89;96669.63;5041503;28;20205;-62
2023/08/18 08:47:48;;;;;;;4.35;2.60;;;;;;;27.97;64.09;96672.19;5041707;28;20620;-61
2023/08/18 08:50:17;;;;;;;6.68;2.47;;;;;;;28.16;63.03;96681.69;5041949;28;20226;-62
2023/08/18 08:52:46;;;;;;;5.57;2.60;;;;;;;28.11;61.55;96683.53;5041343;28;20218;-62
2023/08/18 08:55:14;;;;;;;5.03;2.38;;;;;;;28.44;60.11;96682.56;5042024;28;20248;-61
2023/08/18 08:57:40;;;;;;;5.82;2.65;;;;;;;28.82;61.10;96684.38;5041106;28;20534;-62
2023/08/18 09:00:08;;;;;;;3.33;2.28;;;;;;;28.71;58.43;96679.91;5041943;28;20203;-64
2023/08/18 09:02:41;;;;;;;6.90;2.47;;;;;;;28.89;60.19;96677.63;5042152;28;20211;-63
2023/08/18 09:05:14;;;;;;;7.20;3.60;;;;;;;29.02;58.21;96684.56;5041247;28;20292;-65
2023/08/18 09:07:43;;;;;;;5.25;2.28;;;;;;;29.37;60.86;96684.09;5042078;28;20199;-63
2023/08/18 09:10:11;;;;;;;4.97;2.70;;;;;;;29.39;61.23;96680.00;5041469;28;20221;-63
2023/08/18 09:12:38;;;;;;;5.50;2.72;;;;;;;29.53;59.88;96678.47;5040248;28;20196;-63
2023/08/18 09:15:08;;;;;;;7.45;3.55;;;;;;;29.75;60.70;96682.97;5045168;28;20222;-64
2023/08/18 09:17:35;;;;;;;5.72;2.88;;;;;;;29.78;58.06;96685.19;5044137;28;20207;-63
2023/08/18 09:20:04;;;;;;;3.78;2.72;;;;;;;29.65;58.96;96679.09;5044610;28;20207;-63
2023/08/18 09:22:33;;;;;;;6.75;2.95;;;;;;;29.90;56.45;96680.38;5044659;28;20583;-63
2023/08/18 09:25:01;;;;;;;7.18;2.92;;;;;;;29.74;56.25;96670.44;5045025;28;20246;-62
2023/08/18 09:27:30;;;;;;;5.35;2.22;;;;;;;29.88;58.82;96674.38;5045686;28;20219;-63
2023/08/18 09:29:58;;;;;;;4.78;2.42;;;;;;;29.89;58.66;96667.84;5045101;28;20230;-63
2023/08/18 09:32:27;;;;;;;5.20;2.70;;;;;;;30.15;58.01;96658.66;5044107;28;20531;-63
2023/08/18 09:34:54;;;;;;;6.13;2.80;;;;;;;29.78;57.06;96663.38;5045027;28;20207;-62
2023/08/18 09:37:21;;;;;;;7.20;2.50;;;;;;;29.59;56.78;96663.78;5044600;28;20203;-63
2023/08/18 09:39:47;;;;;;;6.20;2.72;;;;;;;29.81;59.52;96666.38;5046080;28;20214;-63
2023/08/18 09:42:16;;;;;;;7.25;2.85;;;;;;;30.07;57.95;96659.19;5044619;28;20215;-63
2023/08/18 09:44:42;;;;;;;7.05;2.83;;;;;;;30.39;56.43;96651.69;5027567;28;20510;-63
2023/08/18 09:47:09;;;;;;;5.15;2.75;;;;;;;30.54;60.23;96651.75;5046442;28;20518;-62
2023/08/18 09:49:40;;;;;;;4.72;2.75;;;;;;;30.57;59.72;96650.41;5049152;28;20215;-63
2023/08/18 09:52:08;;;;;;;3.78;2.47;;;;;;;30.30;56.72;96642.38;5047362;28;20219;-63
2023/08/18 09:54:41;;;;;;;6.93;2.60;;;;;;;30.40;56.40;96639.66;5047279;28;20195;-63
2023/08/18 09:57:12;;;;;;;5.70;2.80;;;;;;;30.81;58.11;96639.78;5048540;28;20210;-63
2023/08/18 09:59:43;;;;;;;4.80;2.78;;;;;;;30.71;55.99;96645.25;5044127;28;20211;-61
2023/08/18 10:02:16;;;;;;;6.50;2.70;;;;;;;30.78;57.37;96643.91;5044931;28;20191;-63
2023/08/18 10:04:43;;;;;;;5.57;2.80;;;;;;;30.81;56.34;96639.78;5025921;28;20259;-62
2023/08/18 10:07:13;;;;;;;5.75;2.53;;;;;;;31.23;56.41;96640.38;5043463;28;20211;-62
2023/08/18 10:09:40;;;;;;;3.95;2.30;;;;;;;31.11;55.72;96642.56;5044196;28;20223;-62
2023/08/18 10:12:07;;;;;;;6.70;2.78;;;;;;;30.89;53.99;96636.53;5042030;28;21278;-63
2023/08/18 10:14:34;;;;;;;9.65;2.78;;;;;;;31.19;57.19;96638.47;5042097;28;20842;-63
2023/08/18 10:17:03;;;;;;;4.90;2.80;;;;;;;31.19;54.94;96639.28;5047295;28;20539;-63
2023/08/18 10:19:46;;;;;;;6.57;2.90;;;;;;;31.34;53.85;96636.56;5049661;28;20262;-64
2023/08/18 10:22:13;;;;;;;3.45;2.33;;;;;;;31.23;54.52;96634.94;5043760;28;20234;-62
2023/08/18 10:24:39;;;;;;;4.03;2.50;;;;;;;31.31;53.20;96625.38;5043226;28;20199;-63
2023/08/18 10:27:10;;;;;;;6.75;2.50;;;;;;;31.49;52.75;96620.16;5040435;28;20199;-62
2023/08/18 10:29:37;;;;;;;6.03;3.05;;;;;;;31.41;52.87;96626.16;5040796;28;20218;-62
2023/08/18 10:32:09;;;;;;;5.43;3.03;;;;;;;31.19;52.95;96616.63;5042542;28;20200;-63
2023/08/18 10:34:37;;;;;;;7.43;3.00;;;;;;;31.42;52.43;96622.34;5042543;28;20241;-63
2023/08/18 10:37:04;;;;;;;6.70;2.70;;;;;;;31.58;51.96;96614.97;5042615;28;20208;-62
2023/08/18 10:39:36;;;;;;;5.72;3.03;;;;;;;31.68;51.31;96617.66;5046391;28;20200;-62
2023/08/18 10:42:13;;;;;;;6.60;2.92;;;;;;;31.56;52.77;96617.97;5045350;28;20305;-65
2023/08/18 10:44:56;;;;;;;8.73;2.67;;;;;;;31.76;51.73;96605.34;5043525;28;20372;-63
2023/08/18 10:47:34;;;;;;;4.82;2.95;;;;;;;31.67;51.51;96607.84;5042534;28;20240;-64
2023/08/18 10:50:01;;;;;;;6.18;2.80;;;;;;;31.64;53.47;96613.06;5043189;28;20223;-62
2023/08/18 10:52:29;;;;;;;4.68;2.50;;;;;;;32.09;53.74;96614.84;5042796;28;20306;-63
2023/08/18 10:54:55;;;;;;;3.10;2.58;;;;;;;32.04;53.41;96610.16;5042958;28;20292;-63
2023/08/18 10:57:21;;;;;;;6.70;2.92;;;;;;;32.00;51.56;96600.88;5042701;28;20539;-63
2023/08/18 10:59:48;;;;;;;7.50;2.95;;;;;;;32.01;51.95;96602.53;5042955;28;20206;-64
2023/08/18 11:02:14;;;;;;;7.13;2.95;;;;;;;31.98;50.84;96598.44;5042405;28;20207;-63
2023/08/18 11:04:42;;;;;;;8.23;3.00;;;;;;;32.42;51.64;96603.97;5041894;28;20254;-62
2023/08/18 11:07:09;;;;;;;5.78;3.17;;;;;;;32.60;49.76;96604.44;5042345;28;20222;-64
2023/08/18 11:09:36;;;;;;;7.22;3.13;;;;;;;32.78;52.71;96598.31;5042105;28;20241;-63
2023/08/18 11:12:03;;;;;;;4.82;3.00;;;;;;;32.89;50.16;96602.59;5042175;28;20540;-64
2023/08/18 11:14:29;;;;;;;3.42;2.42;;;;;;;32.87;47.87;96591.13;5041595;28;20246;-62
2023/08/18 11:16:56;;;;;;;9.10;2.95;;;;;;;32.62;48.30;96602.25;5041484;28;20223;-62
2023/08/18 11:19:24;;;;;;;6.00;3.20;;;;;;;32.69;49.64;96589.06;5042334;28;20400;-62
2023/08/18 11:21:52;;;;;;;9.00;3.00;;;;;;;32.53;48.60;96586.38;5041425;28;20222;-63
2023/08/18 11:24:19;;;;;;;6.90;2.53;;;;;;;32.90;49.51;96585.06;5041705;28;20207;-62
2023/08/18 11:26:47;;;;;;;8.13;2.78;;;;;;;32.91;48.76;96586.72;5041700;28;20219;-62
2023/08/18 11:29:14;;;;;;;6.68;2.90;;;;;;;32.10;49.73;96583.66;5042558;28;20309;-62
2023/08/18 11:31:41;;;;;;;4.47;2.40;;;;;;;32.55;51.59;96586.94;5041321;28;20211;-62